createdAt,value
2023-03-29T03:02:07.961Z,56.22
2023-03-29T03:04:36.695Z,56.19
2023-03-29T03:07:06.608Z,56.17
2023-03-29T03:09:36.457Z,56.07
2023-03-29T03:12:05.628Z,56.00
2023-03-29T03:14:34.933Z,56.27
2023-03-29T03:17:04.934Z,56.28
2023-03-29T03:19:34.869Z,56.19
2023-03-29T03:22:08.359Z,56.40
2023-03-29T03:24:40.054Z,56.46
2023-03-29T03:27:09.436Z,56.35
2023-03-29T03:29:39.214Z,56.35
2023-03-29T03:32:21.238Z,56.55
2023-03-29T03:34:57.412Z,56.39
2023-03-29T03:37:29.222Z,56.59
2023-03-29T03:39:58.905Z,56.39
2023-03-29T03:42:29.967Z,56.46
2023-03-29T03:45:00.521Z,56.41
2023-03-29T03:47:48.637Z,56.51
2023-03-29T03:50:26.283Z,56.59
2023-03-29T03:52:55.193Z,56.61
2023-03-29T03:55:24.304Z,56.42
2023-03-29T03:58:05.273Z,56.50
2023-03-29T04:00:34.765Z,56.51
2023-03-29T04:03:15.970Z,56.58
2023-03-29T04:05:46.646Z,56.72
2023-03-29T04:08:16.552Z,56.44
2023-03-29T04:11:04.848Z,56.53
2023-03-29T04:13:39.046Z,56.62
2023-03-29T04:16:32.815Z,56.61
2023-03-29T04:19:14.320Z,56.63
2023-03-29T04:21:46.996Z,56.65
2023-03-29T04:24:17.820Z,56.63
2023-03-29T04:26:54.528Z,56.67
2023-03-29T04:29:26.536Z,56.64
2023-03-29T04:32:03.689Z,56.56
2023-03-29T04:34:51.718Z,56.73
2023-03-29T04:37:22.606Z,56.67
2023-03-29T04:39:52.964Z,56.88
2023-03-29T04:42:22.227Z,56.94
2023-03-29T04:44:51.492Z,56.91
2023-03-29T04:47:24.073Z,56.83
2023-03-29T04:49:58.598Z,56.93
2023-03-29T04:52:36.846Z,56.89
2023-03-29T04:55:07.657Z,56.96
2023-03-29T04:58:11.096Z,56.97
2023-03-29T05:00:43.700Z,56.92
2023-03-29T05:03:24.750Z,56.84
2023-03-29T05:06:10.731Z,57.02
2023-03-29T05:08:41.490Z,57.11
2023-03-29T05:11:26.106Z,57.14
2023-03-29T05:13:57.538Z,57.05
2023-03-29T05:16:31.125Z,57.17
2023-03-29T05:19:00.667Z,57.17
2023-03-29T05:21:34.100Z,57.21
2023-03-29T05:24:04.944Z,57.36
2023-03-29T05:26:59.010Z,57.61
2023-03-29T05:29:29.672Z,57.43
2023-03-29T05:32:12.251Z,57.53
2023-03-29T05:34:41.821Z,57.49
2023-03-29T05:37:10.871Z,57.51
2023-03-29T05:39:51.896Z,57.31
2023-03-29T05:42:23.284Z,57.39
2023-03-29T05:44:59.333Z,57.40
2023-03-29T05:47:28.983Z,57.32
2023-03-29T05:49:58.144Z,57.45
2023-03-29T05:52:28.156Z,57.41
2023-03-29T05:54:57.049Z,57.43
2023-03-29T05:57:26.198Z,57.34
2023-03-29T05:59:55.688Z,57.24
2023-03-29T06:02:26.127Z,57.23
2023-03-29T06:04:55.619Z,57.09
2023-03-29T06:07:25.292Z,57.08
2023-03-29T06:10:12.932Z,56.86
2023-03-29T06:12:45.800Z,57.03
2023-03-29T06:15:15.938Z,56.36
2023-03-29T06:17:54.877Z,56.20
2023-03-29T06:20:23.799Z,56.14
2023-03-29T06:22:58.496Z,56.61
2023-03-29T06:25:30.013Z,56.95
2023-03-29T06:27:59.762Z,57.14
2023-03-29T06:30:29.604Z,57.24
2023-03-29T06:33:00.036Z,57.09
2023-03-29T06:35:47.222Z,56.46
2023-03-29T06:38:21.697Z,56.50
2023-03-29T06:41:05.670Z,56.20
2023-03-29T06:43:51.395Z,56.35
2023-03-29T06:46:24.439Z,56.72
2023-03-29T06:48:58.614Z,56.80
2023-03-29T06:51:36.294Z,56.74
2023-03-29T06:54:05.657Z,56.71
2023-03-29T06:56:35.420Z,56.80
2023-03-29T06:59:08.794Z,56.49
2023-03-29T07:01:49.185Z,56.54
2023-03-29T07:04:27.907Z,56.69
2023-03-29T07:07:20.726Z,56.64
2023-03-29T07:09:57.107Z,56.78
2023-03-29T07:12:31.984Z,56.49
2023-03-29T07:15:02.596Z,56.57
2023-03-29T07:17:51.784Z,57.02
2023-03-29T07:20:24.114Z,56.79
2023-03-29T07:23:04.574Z,56.52
2023-03-29T07:25:34.592Z,56.59
2023-03-29T07:28:04.142Z,56.56
2023-03-29T07:30:33.720Z,56.47
2023-03-29T07:33:22.420Z,56.50
2023-03-29T07:35:55.788Z,56.38
2023-03-29T07:38:55.903Z,56.59
2023-03-29T07:41:26.972Z,56.41
2023-03-29T07:44:18.806Z,56.36
2023-03-29T07:46:48.100Z,56.51
2023-03-29T07:49:17.303Z,56.18
2023-03-29T07:51:46.117Z,56.14
2023-03-29T07:54:15.475Z,56.43
2023-03-29T07:56:49.872Z,56.27
2023-03-29T07:59:25.397Z,56.06
2023-03-29T08:02:02.655Z,56.36
2023-03-29T08:04:36.657Z,56.20
2023-03-29T08:07:32.849Z,56.23
2023-03-29T08:10:28.184Z,56.13
2023-03-29T08:13:20.993Z,56.07
2023-03-29T08:16:09.436Z,56.05
2023-03-29T08:18:42.763Z,56.05
2023-03-29T08:21:11.559Z,56.01
2023-03-29T08:23:41.325Z,55.60
2023-03-29T08:26:23.906Z,55.53
2023-03-29T08:28:52.662Z,55.36
2023-03-29T08:31:22.135Z,55.66
2023-03-29T08:33:50.364Z,55.66
2023-03-29T08:36:37.475Z,55.57
2023-03-29T08:39:11.697Z,55.44
2023-03-29T08:41:50.423Z,55.29
2023-03-29T08:44:37.317Z,55.11
2023-03-29T08:47:34.790Z,55.34
2023-03-29T08:50:16.897Z,55.17
2023-03-29T08:52:55.939Z,55.19
2023-03-29T08:55:50.103Z,55.30
2023-03-29T08:58:38.764Z,55.14
2023-03-29T09:01:10.016Z,55.13
2023-03-29T09:04:06.007Z,54.87
2023-03-29T09:06:58.458Z,54.96
2023-03-29T09:09:33.097Z,54.65
2023-03-29T09:12:21.323Z,54.56
2023-03-29T09:15:05.325Z,54.04
2023-03-29T09:17:33.920Z,54.10
2023-03-29T09:20:27.873Z,54.00
2023-03-29T09:23:07.149Z,53.87
2023-03-29T09:25:54.200Z,53.88
2023-03-29T09:28:35.112Z,53.63
2023-03-29T09:31:10.651Z,53.63
2023-03-29T09:33:53.995Z,53.32
2023-03-29T09:36:47.291Z,53.69
2023-03-29T09:39:17.280Z,53.59
2023-03-29T09:41:53.209Z,53.22
2023-03-29T09:44:32.227Z,53.15
2023-03-29T09:47:19.370Z,53.16
2023-03-29T09:49:51.453Z,53.06
2023-03-29T09:52:21.445Z,52.93
2023-03-29T09:55:00.414Z,53.11
2023-03-29T09:58:15.692Z,53.17
2023-03-29T10:00:48.524Z,53.01
2023-03-29T10:03:20.153Z,52.91
2023-03-29T10:05:56.467Z,52.63
2023-03-29T10:08:48.123Z,52.79
2023-03-29T10:11:24.233Z,52.63
2023-03-29T10:13:57.784Z,52.70
2023-03-29T10:16:30.748Z,52.60
2023-03-29T10:18:59.272Z,52.73
2023-03-29T10:21:29.218Z,52.33
2023-03-29T10:23:59.653Z,52.41
2023-03-29T10:26:33.484Z,52.26
2023-03-29T10:29:04.832Z,52.20
2023-03-29T10:31:38.488Z,52.32
2023-03-29T10:34:09.180Z,52.03
2023-03-29T10:36:41.711Z,51.99
2023-03-29T10:39:16.702Z,52.10
2023-03-29T10:41:45.852Z,52.01
2023-03-29T10:44:33.116Z,51.88
2023-03-29T10:47:20.725Z,51.72
2023-03-29T10:49:57.517Z,51.94
2023-03-29T10:52:27.071Z,51.72
2023-03-29T10:54:56.858Z,51.78
2023-03-29T10:57:25.757Z,51.64
2023-03-29T11:00:10.180Z,51.41
2023-03-29T11:02:48.607Z,51.33
2023-03-29T11:05:20.883Z,51.41
2023-03-29T11:08:30.490Z,51.21
2023-03-29T11:11:33.859Z,50.98
2023-03-29T11:14:03.339Z,51.11
2023-03-29T11:16:42.673Z,50.86
2023-03-29T11:19:20.635Z,51.17
2023-03-29T11:21:50.341Z,51.07
2023-03-29T11:24:19.321Z,51.33
2023-03-29T11:27:08.109Z,50.83
2023-03-29T11:29:58.113Z,50.19
2023-03-29T11:32:30.647Z,50.30
2023-03-29T11:35:19.385Z,50.70
2023-03-29T11:38:18.799Z,50.28
2023-03-29T11:40:53.967Z,50.31
2023-03-29T11:43:23.078Z,50.05
2023-03-29T11:45:55.373Z,50.02
2023-03-29T11:48:29.777Z,50.15
2023-03-29T11:51:04.428Z,50.14
2023-03-29T11:53:39.521Z,49.87
2023-03-29T11:56:14.933Z,50.19
2023-03-29T11:58:46.693Z,50.20
2023-03-29T12:01:18.677Z,49.92
2023-03-29T12:03:51.230Z,50.11
2023-03-29T12:06:29.236Z,49.88
2023-03-29T12:09:07.716Z,49.83
2023-03-29T12:12:00.162Z,50.07
2023-03-29T12:14:33.422Z,49.41
2023-03-29T12:17:05.691Z,49.64
2023-03-29T12:19:50.637Z,50.14
2023-03-29T12:22:21.276Z,49.62
2023-03-29T12:24:53.001Z,49.65
2023-03-29T12:27:26.618Z,50.03
2023-03-29T12:29:55.440Z,49.79
2023-03-29T12:32:43.855Z,49.87
2023-03-29T12:35:42.868Z,49.49
2023-03-29T12:38:31.842Z,49.27
2023-03-29T12:41:25.907Z,49.61
2023-03-29T12:44:21.122Z,49.64
2023-03-29T12:47:00.756Z,49.95
2023-03-29T12:49:33.506Z,49.59
2023-03-29T12:52:04.340Z,49.43
2023-03-29T12:54:34.049Z,49.43
2023-03-29T12:57:19.190Z,49.33
2023-03-29T12:59:48.724Z,49.63
2023-03-29T13:02:18.729Z,49.49
2023-03-29T13:04:52.799Z,49.45
2023-03-29T13:07:24.570Z,49.47
2023-03-29T13:09:53.376Z,49.41
2023-03-29T13:12:23.399Z,49.46
2023-03-29T13:15:01.073Z,49.36
2023-03-29T13:17:48.972Z,49.23
2023-03-29T13:20:26.872Z,49.05
2023-03-29T13:22:58.478Z,49.18
2023-03-29T13:25:52.555Z,49.44
2023-03-29T13:28:27.162Z,49.42
2023-03-29T13:31:00.706Z,48.94
2023-03-29T13:33:42.054Z,49.15
2023-03-29T13:36:16.804Z,49.14
2023-03-29T13:38:53.922Z,49.05
2023-03-29T13:41:33.954Z,49.04
2023-03-29T13:44:03.279Z,48.72
2023-03-29T13:46:42.121Z,48.69
2023-03-29T13:49:19.980Z,48.77
2023-03-29T13:52:01.352Z,48.74
2023-03-29T13:54:37.526Z,48.85
2023-03-29T13:57:09.800Z,48.83
2023-03-29T13:59:58.121Z,48.73
2023-03-29T14:02:33.723Z,48.75
2023-03-29T14:05:04.877Z,48.63
2023-03-29T14:07:34.288Z,48.66
2023-03-29T14:10:03.935Z,48.68
2023-03-29T14:12:41.920Z,48.66
2023-03-29T14:15:29.242Z,48.58
2023-03-29T14:18:00.331Z,48.40
2023-03-29T14:20:31.816Z,48.42
2023-03-29T14:23:01.031Z,48.51
2023-03-29T14:25:29.616Z,48.44
2023-03-29T14:27:58.390Z,48.24
2023-03-29T14:30:28.610Z,48.33
2023-03-29T14:32:57.803Z,48.33
2023-03-29T14:35:31.556Z,48.43
2023-03-29T14:38:01.215Z,48.47
2023-03-29T14:40:32.280Z,48.43
2023-03-29T14:43:05.293Z,48.18
2023-03-29T14:45:33.845Z,48.16
2023-03-29T14:48:05.917Z,48.31
2023-03-29T14:50:39.926Z,48.10
2023-03-29T14:53:20.151Z,48.27
2023-03-29T14:55:54.581Z,48.26
2023-03-29T14:58:34.957Z,48.18
2023-03-29T15:01:17.822Z,48.14
2023-03-29T15:03:57.542Z,48.23
2023-03-29T15:06:28.034Z,47.98
2023-03-29T15:09:06.100Z,47.95
2023-03-29T15:11:36.771Z,48.22
2023-03-29T15:14:07.878Z,47.86
2023-03-29T15:16:41.954Z,48.44
2023-03-29T15:19:14.709Z,48.07
2023-03-29T15:21:44.938Z,47.88
2023-03-29T15:24:39.872Z,47.85
2023-03-29T15:27:14.726Z,47.98
2023-03-29T15:29:44.730Z,48.01
2023-03-29T15:32:24.020Z,48.24
2023-03-29T15:35:00.145Z,47.93
2023-03-29T15:37:30.208Z,47.97
2023-03-29T15:39:59.633Z,48.06
2023-03-29T15:42:28.726Z,47.93
2023-03-29T15:44:57.595Z,47.72
2023-03-29T15:47:26.715Z,48.04
2023-03-29T15:49:55.559Z,47.87
2023-03-29T15:52:24.761Z,48.09
2023-03-29T15:54:53.075Z,47.81
2023-03-29T15:57:22.508Z,48.01
2023-03-29T15:59:51.776Z,48.10
2023-03-29T16:02:22.275Z,47.90
2023-03-29T16:04:51.091Z,47.64
2023-03-29T16:07:21.203Z,47.85
2023-03-29T16:09:49.722Z,47.73
2023-03-29T16:12:18.184Z,48.11
2023-03-29T16:14:47.637Z,48.02
2023-03-29T16:17:17.018Z,48.00
2023-03-29T16:19:45.852Z,47.84
2023-03-29T16:22:14.176Z,47.87
2023-03-29T16:24:44.131Z,47.97
2023-03-29T16:27:13.142Z,47.88
2023-03-29T16:29:42.104Z,47.64
2023-03-29T16:32:11.506Z,47.74
2023-03-29T16:34:41.670Z,47.93
2023-03-29T16:37:10.700Z,47.82
2023-03-29T16:39:39.978Z,47.54
2023-03-29T16:42:11.938Z,47.70
2023-03-29T16:44:41.074Z,47.74
2023-03-29T16:47:11.010Z,47.55
2023-03-29T16:49:40.413Z,47.89
2023-03-29T16:52:09.868Z,47.79
2023-03-29T16:54:39.194Z,47.67
2023-03-29T16:57:07.850Z,47.79
2023-03-29T16:59:36.684Z,47.63
2023-03-29T17:02:05.632Z,47.83
2023-03-29T17:04:34.364Z,47.63
2023-03-29T17:07:04.417Z,47.83
2023-03-29T17:09:34.116Z,47.67
2023-03-29T17:12:03.244Z,47.73
2023-03-29T17:15:06.527Z,47.37
2023-03-29T17:17:35.615Z,47.80
2023-03-29T17:20:06.654Z,47.60
2023-03-29T17:22:36.164Z,47.66
2023-03-29T17:25:07.418Z,47.95
2023-03-29T17:27:38.255Z,47.75
2023-03-29T17:30:07.310Z,47.69
2023-03-29T17:32:36.857Z,47.59
2023-03-29T17:35:05.855Z,47.42
2023-03-29T17:37:34.957Z,47.53
2023-03-29T17:40:14.939Z,47.42
2023-03-29T17:42:46.671Z,47.61
2023-03-29T17:45:15.988Z,47.47
2023-03-29T17:47:44.967Z,47.61
2023-03-29T17:50:13.959Z,47.45
2023-03-29T17:52:42.283Z,47.76
2023-03-29T17:55:13.683Z,47.48
2023-03-29T17:57:42.470Z,47.65
2023-03-29T18:00:12.679Z,47.42
2023-03-29T18:02:41.600Z,47.55
2023-03-29T18:05:15.485Z,47.50
2023-03-29T18:07:46.600Z,47.64
2023-03-29T18:10:15.081Z,47.53
2023-03-29T18:12:45.499Z,47.58
2023-03-29T18:15:14.515Z,47.58
2023-03-29T18:17:43.752Z,47.36
2023-03-29T18:20:13.308Z,47.58
2023-03-29T18:22:42.580Z,47.38
2023-03-29T18:25:16.750Z,47.21
2023-03-29T18:27:48.270Z,47.57
2023-03-29T18:30:17.558Z,47.29
2023-03-29T18:32:46.065Z,47.68
2023-03-29T18:35:14.598Z,47.17
2023-03-29T18:37:42.820Z,47.36
2023-03-29T18:40:12.476Z,47.73
2023-03-29T18:42:41.736Z,47.36
2023-03-29T18:45:10.831Z,47.39
2023-03-29T18:47:39.234Z,47.55
2023-03-29T18:50:09.752Z,47.51
2023-03-29T18:52:38.091Z,47.70
2023-03-29T18:55:07.344Z,47.58
2023-03-29T18:57:36.085Z,47.61
2023-03-29T19:00:10.789Z,47.71
2023-03-29T19:02:41.931Z,47.64
2023-03-29T19:05:11.090Z,47.57
2023-03-29T19:07:39.394Z,47.52
2023-03-29T19:10:08.524Z,47.67
2023-03-29T19:12:36.916Z,47.67
2023-03-29T19:15:05.486Z,47.50
2023-03-29T19:17:33.962Z,47.87
2023-03-29T19:20:02.315Z,47.32
2023-03-29T19:22:31.386Z,47.55
2023-03-29T19:24:59.734Z,47.34
2023-03-29T19:27:28.140Z,47.47
2023-03-29T19:29:56.297Z,47.36
2023-03-29T19:32:24.731Z,47.39
2023-03-29T19:34:53.454Z,47.68
2023-03-29T19:37:21.834Z,47.48
2023-03-29T19:39:50.180Z,47.62
2023-03-29T19:42:18.472Z,47.55
2023-03-29T19:44:47.063Z,47.57
2023-03-29T19:47:16.457Z,47.69
2023-03-29T19:49:47.703Z,47.35
2023-03-29T19:52:16.758Z,47.32
2023-03-29T19:54:46.267Z,47.46
2023-03-29T19:57:14.736Z,47.51
2023-03-29T19:59:43.300Z,47.61
2023-03-29T20:02:11.951Z,47.56
2023-03-29T20:04:40.916Z,47.58
2023-03-29T20:07:09.741Z,47.83
2023-03-29T20:09:38.368Z,47.63
2023-03-29T20:12:06.833Z,47.69
2023-03-29T20:14:37.801Z,47.60
2023-03-29T20:17:07.365Z,47.50
2023-03-29T20:19:38.221Z,47.50
2023-03-29T20:22:09.364Z,47.66
2023-03-29T20:24:38.160Z,47.59
2023-03-29T20:27:07.430Z,47.64
2023-03-29T20:29:37.592Z,47.61
2023-03-29T20:32:07.766Z,47.45
2023-03-29T20:34:37.974Z,47.43
2023-03-29T20:37:07.963Z,47.54
2023-03-29T20:39:37.520Z,47.66
2023-03-29T20:42:06.577Z,47.78
2023-03-29T20:44:35.523Z,47.46
2023-03-29T20:47:05.254Z,47.62
2023-03-29T20:49:37.920Z,47.64
2023-03-29T20:52:08.617Z,47.47
2023-03-29T20:54:39.976Z,47.64
2023-03-29T20:57:10.378Z,47.77
2023-03-29T20:59:39.735Z,47.75
2023-03-29T21:02:12.043Z,47.77
2023-03-29T21:04:43.526Z,47.61
2023-03-29T21:07:13.586Z,47.70
2023-03-29T21:09:42.740Z,47.72
2023-03-29T21:12:11.818Z,47.72
2023-03-29T21:14:40.307Z,47.62
2023-03-29T21:17:09.755Z,47.79
2023-03-29T21:19:40.123Z,47.74
2023-03-29T21:22:10.903Z,47.62
2023-03-29T21:24:40.295Z,47.75
2023-03-29T21:27:09.720Z,47.74
2023-03-29T21:29:39.053Z,47.77
2023-03-29T21:32:08.378Z,47.70
2023-03-29T21:34:38.132Z,47.92
2023-03-29T21:37:07.905Z,47.77
2023-03-29T21:39:37.443Z,47.81
2023-03-29T21:42:06.756Z,47.90
2023-03-29T21:44:36.952Z,47.83
2023-03-29T21:47:06.571Z,47.90
2023-03-29T21:49:35.718Z,47.68
2023-03-29T21:52:04.617Z,47.94
2023-03-29T21:54:34.802Z,47.75
2023-03-29T21:57:03.930Z,47.84
2023-03-29T21:59:33.610Z,47.81
2023-03-29T22:02:02.673Z,47.69
2023-03-29T22:04:37.078Z,47.77
2023-03-29T22:07:08.833Z,47.81
2023-03-29T22:09:38.485Z,48.00
2023-03-29T22:12:07.498Z,47.84
2023-03-29T22:14:36.619Z,47.77
2023-03-29T22:17:08.929Z,47.74
2023-03-29T22:19:42.590Z,47.96
2023-03-29T22:22:14.484Z,47.97
2023-03-29T22:24:43.631Z,47.92
2023-03-29T22:27:12.616Z,47.89
2023-03-29T22:29:41.659Z,48.03
2023-03-29T22:32:10.904Z,48.09
2023-03-29T22:34:40.383Z,47.95
2023-03-29T22:37:09.378Z,48.04
2023-03-29T22:39:38.625Z,48.14
2023-03-29T22:42:07.394Z,48.16
2023-03-29T22:44:36.714Z,48.05
2023-03-29T22:47:05.841Z,47.95
2023-03-29T22:49:34.171Z,47.89
2023-03-29T22:52:03.263Z,48.07
2023-03-29T22:54:32.268Z,48.21
2023-03-29T22:57:01.319Z,48.20
2023-03-29T22:59:30.417Z,48.11
2023-03-29T23:01:59.558Z,48.08
2023-03-29T23:04:28.411Z,48.13
2023-03-29T23:06:57.285Z,47.98
2023-03-29T23:09:26.377Z,48.15
2023-03-29T23:11:57.009Z,48.10
2023-03-29T23:14:26.144Z,48.45
2023-03-29T23:16:55.215Z,48.35
2023-03-29T23:19:24.638Z,48.23
2023-03-29T23:21:53.786Z,48.34
2023-03-29T23:24:22.977Z,48.33
2023-03-29T23:26:51.884Z,48.43
2023-03-29T23:29:21.041Z,48.44
2023-03-29T23:31:51.179Z,48.43
2023-03-29T23:34:20.834Z,48.24
2023-03-29T23:36:50.033Z,48.59
2023-03-29T23:39:19.093Z,48.82
2023-03-29T23:41:48.130Z,48.45
2023-03-29T23:44:17.244Z,48.62
2023-03-29T23:46:46.171Z,48.62
2023-03-29T23:49:16.920Z,48.53
2023-03-29T23:51:48.480Z,48.69
2023-03-29T23:54:17.633Z,48.83
2023-03-29T23:56:47.227Z,48.77
2023-03-29T23:59:16.971Z,48.66
